Time;durP1;ratioP1;P1;durP2;ratioP2;P2;SDS_P1;SDS_P2;PMS_P1;PMS_P2;Temp;Humidity;BMP_temperature;BMP_pressure;BME280_temperature;BME280_humidity;BME280_pressure;Samples;Min_cycle;Max_cycle;Signal;HPM_P1;HPM_P2
2022/11/30 00:00:59;;;;;;;29.85;21.90;;;8.00;99.90;;;;;;5073679;28;20047;-70
2022/11/30 00:03:25;;;;;;;29.73;21.15;;;8.00;99.90;;;;;;5074748;28;20040;-70
2022/11/30 00:05:51;;;;;;;28.48;20.88;;;8.00;99.90;;;;;;5073546;28;20404;-70
2022/11/30 00:08:17;;;;;;;27.75;19.85;;;8.00;99.90;;;;;;5073491;28;20041;-70
2022/11/30 00:10:43;;;;;;;32.05;22.02;;;8.00;99.90;;;;;;5073674;28;20056;-70
2022/11/30 00:13:09;;;;;;;29.13;20.35;;;8.00;99.90;;;;;;5073372;28;20056;-70
2022/11/30 00:15:36;;;;;;;30.10;21.98;;;8.00;99.90;;;;;;5073336;28;20400;-70
2022/11/30 00:18:02;;;;;;;34.35;22.13;;;8.00;99.90;;;;;;5073317;28;20119;-70
2022/11/30 00:20:28;;;;;;;30.17;21.95;;;7.90;99.90;;;;;;5073501;28;20124;-70
2022/11/30 00:22:56;;;;;;;32.97;21.73;;;8.00;99.90;;;;;;5073154;28;20405;-70
2022/11/30 00:25:22;;;;;;;30.65;22.17;;;7.90;99.90;;;;;;5073189;28;20064;-70
2022/11/30 00:27:48;;;;;;;30.10;21.80;;;7.90;99.90;;;;;;5073136;28;20054;-70
2022/11/30 00:30:14;;;;;;;34.00;23.60;;;7.90;99.90;;;;;;5073045;28;20044;-70
2022/11/30 00:32:40;;;;;;;30.60;22.33;;;7.80;99.90;;;;;;5072869;28;20041;-70
2022/11/30 00:35:05;;;;;;;33.78;23.05;;;7.80;99.90;;;;;;5073233;28;20049;-70
2022/11/30 00:37:33;;;;;;;33.13;22.90;;;7.70;99.90;;;;;;5071919;28;20036;-70
2022/11/30 00:39:58;;;;;;;34.40;22.92;;;7.60;99.90;;;;;;5074127;28;20041;-70
2022/11/30 00:42:24;;;;;;;29.08;21.73;;;7.60;99.90;;;;;;5074087;28;20047;-70
2022/11/30 00:44:49;;;;;;;33.90;22.98;;;7.40;99.90;;;;;;5073925;28;20086;-70
2022/11/30 00:47:15;;;;;;;29.45;22.17;;;7.40;99.90;;;;;;5072677;28;20051;-70
2022/11/30 00:49:40;;;;;;;36.80;24.38;;;7.30;99.90;;;;;;5056038;28;20115;-70
2022/11/30 00:52:06;;;;;;;36.72;24.08;;;7.20;99.90;;;;;;5072531;28;20040;-70
2022/11/30 00:54:32;;;;;;;32.03;21.63;;;7.20;99.90;;;;;;5072524;28;20045;-70
2022/11/30 00:56:57;;;;;;;32.90;22.45;;;7.10;99.90;;;;;;5072535;28;20044;-70
2022/11/30 00:59:23;;;;;;;38.22;23.75;;;7.10;99.90;;;;;;5072780;28;20179;-70
2022/11/30 01:01:49;;;;;;;35.05;22.85;;;7.00;99.90;;;;;;5072422;28;20044;-70
2022/11/30 01:04:14;;;;;;;37.88;24.85;;;7.00;99.90;;;;;;5072635;28;20101;-70
2022/11/30 01:06:40;;;;;;;34.28;24.00;;;7.00;99.90;;;;;;5072402;28;20550;-70
2022/11/30 01:09:05;;;;;;;36.50;23.95;;;7.00;99.90;;;;;;5072362;28;20040;-69
2022/11/30 01:11:31;;;;;;;38.45;23.67;;;7.00;99.90;;;;;;5072223;28;20055;-69
2022/11/30 01:13:58;;;;;;;36.50;24.02;;;7.00;99.90;;;;;;5072447;28;20040;-70
2022/11/30 01:16:27;;;;;;;31.25;22.25;;;7.10;99.90;;;;;;5072428;28;20085;-70
2022/11/30 01:18:53;;;;;;;37.08;23.33;;;7.10;99.90;;;;;;5072196;28;20097;-70
2022/11/30 01:21:24;;;;;;;33.65;23.38;;;7.10;99.90;;;;;;5072141;28;20040;-70
2022/11/30 01:23:50;;;;;;;38.20;25.50;;;7.10;99.90;;;;;;5072314;28;20140;-70
2022/11/30 01:26:16;;;;;;;36.38;24.13;;;7.10;99.90;;;;;;5072070;28;20401;-70
2022/11/30 01:28:43;;;;;;;32.10;22.75;;;7.10;99.90;;;;;;5072044;28;20405;-70
2022/11/30 01:31:11;;;;;;;36.72;24.80;;;7.10;99.90;;;;;;5071926;28;20554;-70
2022/11/30 01:33:37;;;;;;;33.25;23.58;;;7.20;99.90;;;;;;5071850;28;20041;-70
2022/11/30 01:36:04;;;;;;;37.92;25.42;;;7.20;99.90;;;;;;5072200;28;20436;-70
2022/11/30 01:38:42;;;;;;;33.75;22.88;;;7.20;99.90;;;;;;5072223;28;20090;-70
2022/11/30 01:41:09;;;;;;;30.50;22.80;;;7.20;99.90;;;;;;5071919;28;20056;-70
2022/11/30 01:43:51;;;;;;;39.30;24.42;;;7.20;99.90;;;;;;5072039;28;20036;-70
2022/11/30 01:46:37;;;;;;;37.55;25.08;;;7.20;99.90;;;;;;5071819;28;20126;-70
2022/11/30 01:49:17;;;;;;;38.50;25.58;;;7.20;99.90;;;;;;5071577;28;20101;-70
2022/11/30 01:51:56;;;;;;;37.47;25.83;;;7.20;99.90;;;;;;5071787;28;20497;-70
2022/11/30 01:54:31;;;;;;;34.35;22.80;;;7.20;99.90;;;;;;5071781;28;20054;-70
2022/11/30 01:57:02;;;;;;;33.75;24.63;;;7.20;99.90;;;;;;5071842;28;20093;-70
2022/11/30 01:59:28;;;;;;;41.35;25.60;;;7.20;99.90;;;;;;5072599;28;20489;-70
2022/11/30 02:01:55;;;;;;;40.63;26.90;;;7.20;99.90;;;;;;5071995;28;20075;-70
2022/11/30 02:04:22;;;;;;;40.13;25.90;;;7.20;99.90;;;;;;5071577;28;20396;-70
2022/11/30 02:06:48;;;;;;;43.88;26.98;;;7.30;99.90;;;;;;5071647;28;20040;-70
2022/11/30 02:09:16;;;;;;;39.00;25.70;;;7.20;99.90;;;;;;5071627;28;20039;-70
2022/11/30 02:11:42;;;;;;;37.20;25.33;;;7.20;99.90;;;;;;5071549;28;20044;-70
2022/11/30 02:14:26;;;;;;;32.95;23.55;;;7.20;99.90;;;;;;5071499;28;20047;-70
2022/11/30 02:17:18;;;;;;;39.90;26.20;;;7.20;99.90;;;;;;5071868;28;20059;-70
2022/11/30 02:19:56;;;;;;;34.72;24.13;;;7.20;99.90;;;;;;5071874;28;20052;-70
2022/11/30 02:22:25;;;;;;;36.10;24.98;;;7.20;99.90;;;;;;5073409;28;20047;-70
2022/11/30 02:25:05;;;;;;;34.20;23.77;;;7.20;99.90;;;;;;5071389;28;20040;-70
2022/11/30 02:27:33;;;;;;;35.30;23.38;;;7.20;99.90;;;;;;5071505;28;20046;-70
2022/11/30 02:30:12;;;;;;;37.53;24.73;;;7.20;99.90;;;;;;5071454;28;20051;-70
2022/11/30 02:33:09;;;;;;;33.38;23.70;;;7.20;99.90;;;;;;5071393;28;20036;-70
2022/11/30 02:35:39;;;;;;;30.38;23.65;;;7.20;99.90;;;;;;5071395;28;20049;-70
2022/11/30 02:38:05;;;;;;;34.90;23.65;;;7.20;99.90;;;;;;5071426;28;20036;-70
2022/11/30 02:40:31;;;;;;;32.47;23.58;;;7.20;99.90;;;;;;5054956;28;20094;-70
2022/11/30 02:43:00;;;;;;;35.75;24.65;;;7.20;99.90;;;;;;5071279;28;20501;-70
2022/11/30 02:46:00;;;;;;;34.60;24.02;;;7.20;99.90;;;;;;5071189;28;20390;-70
2022/11/30 02:48:42;;;;;;;34.50;24.98;;;7.30;99.90;;;;;;5071317;28;20049;-70
2022/11/30 02:51:12;;;;;;;35.55;24.17;;;7.20;99.90;;;;;;5071248;28;20068;-70
2022/11/30 02:53:38;;;;;;;36.78;25.02;;;7.20;99.90;;;;;;5071158;28;20045;-70
2022/11/30 02:56:04;;;;;;;31.75;22.42;;;7.20;99.90;;;;;;5071224;28;20036;-70
2022/11/30 02:58:30;;;;;;;35.28;24.85;;;7.20;99.90;;;;;;5071454;28;20046;-70
2022/11/30 03:00:55;;;;;;;35.90;24.70;;;7.30;99.90;;;;;;5072110;28;20455;-70
2022/11/30 03:03:21;;;;;;;34.90;25.35;;;7.30;99.90;;;;;;5074662;28;20075;-70
2022/11/30 03:05:47;;;;;;;38.58;25.83;;;7.30;99.90;;;;;;5074710;28;20040;-70
2022/11/30 03:08:12;;;;;;;40.65;26.80;;;7.30;99.90;;;;;;5074918;28;20040;-70
2022/11/30 03:10:38;;;;;;;41.30;26.75;;;7.30;99.90;;;;;;5074633;28;20040;-70
2022/11/30 03:13:03;;;;;;;34.75;24.33;;;7.30;99.90;;;;;;5074426;28;20123;-70
2022/11/30 03:15:29;;;;;;;38.53;27.42;;;7.30;99.90;;;;;;5074536;28;20051;-70
2022/11/30 03:17:54;;;;;;;40.22;27.80;;;7.30;99.90;;;;;;5074503;28;20072;-70
2022/11/30 03:20:20;;;;;;;42.03;28.13;;;7.20;99.90;;;;;;5074476;28;20044;-70
2022/11/30 03:22:46;;;;;;;39.65;26.67;;;7.30;99.90;;;;;;5074356;28;20221;-70
2022/11/30 03:25:11;;;;;;;37.38;26.75;;;7.30;99.90;;;;;;5057779;28;20036;-70
2022/11/30 03:27:37;;;;;;;35.67;25.20;;;7.30;99.90;;;;;;5074327;28;20051;-70
2022/11/30 03:30:03;;;;;;;39.70;26.92;;;7.30;99.90;;;;;;5074287;28;20044;-70
2022/11/30 03:32:29;;;;;;;35.00;26.45;;;7.30;99.90;;;;;;5074158;28;20115;-70
2022/11/30 03:34:55;;;;;;;41.22;26.90;;;7.30;99.90;;;;;;5074135;28;20091;-70
2022/11/30 03:37:21;;;;;;;39.40;26.35;;;7.30;99.90;;;;;;5074154;28;20094;-70
2022/11/30 03:39:47;;;;;;;42.38;27.02;;;7.30;99.90;;;;;;5074123;28;20079;-70
2022/11/30 03:42:12;;;;;;;37.58;26.38;;;7.30;99.90;;;;;;5074033;28;20040;-70
2022/11/30 03:44:38;;;;;;;34.75;24.80;;;7.30;99.90;;;;;;5073976;28;20051;-70
2022/11/30 03:47:03;;;;;;;41.28;28.05;;;7.30;99.90;;;;;;5073887;28;20119;-70
2022/11/30 03:49:29;;;;;;;42.50;27.85;;;7.30;99.90;;;;;;5073946;28;20036;-70
2022/11/30 03:51:54;;;;;;;36.55;26.15;;;7.30;99.90;;;;;;5073793;28;20043;-70
2022/11/30 03:54:20;;;;;;;39.97;27.40;;;7.30;99.90;;;;;;5073751;28;20045;-70
2022/11/30 03:56:46;;;;;;;38.97;26.17;;;7.30;99.90;;;;;;5073782;28;20036;-70
2022/11/30 03:59:11;;;;;;;40.92;27.15;;;7.30;99.90;;;;;;5073794;28;20165;-70
2022/11/30 04:01:39;;;;;;;40.92;28.25;;;7.30;99.90;;;;;;5073644;28;20055;-70
2022/11/30 04:04:05;;;;;;;37.63;26.55;;;7.30;99.90;;;;;;5073604;28;20052;-70
2022/11/30 04:06:30;;;;;;;35.55;25.38;;;7.40;99.90;;;;;;5073631;28;20037;-70
2022/11/30 04:08:56;;;;;;;44.17;30.45;;;7.40;99.90;;;;;;5073542;28;20505;-70
2022/11/30 04:11:21;;;;;;;40.42;27.30;;;7.40;99.90;;;;;;5073224;28;20406;-70
2022/11/30 04:13:47;;;;;;;43.33;28.25;;;7.40;99.90;;;;;;5074634;28;20045;-70
2022/11/30 04:16:13;;;;;;;44.58;28.35;;;7.40;99.90;;;;;;5073348;28;20064;-70
2022/11/30 04:18:38;;;;;;;41.83;28.15;;;7.40;99.90;;;;;;5073348;28;20040;-70
2022/11/30 04:21:06;;;;;;;38.80;27.70;;;7.40;99.90;;;;;;5056623;28;20048;-70
2022/11/30 04:23:34;;;;;;;38.65;26.85;;;7.40;99.90;;;;;;5073184;28;20048;-70
2022/11/30 04:26:02;;;;;;;46.15;28.65;;;7.40;99.90;;;;;;5073155;28;20040;-70
2022/11/30 04:28:28;;;;;;;43.33;28.17;;;7.40;99.90;;;;;;5073440;28;20044;-70
2022/11/30 04:30:54;;;;;;;43.25;27.38;;;7.40;99.90;;;;;;5073292;28;20476;-70
2022/11/30 04:33:20;;;;;;;40.53;27.55;;;7.40;99.90;;;;;;5072963;28;20080;-70
2022/11/30 04:35:50;;;;;;;42.92;27.70;;;7.40;99.90;;;;;;5073019;28;20047;-70
2022/11/30 04:38:16;;;;;;;50.15;29.70;;;7.40;99.90;;;;;;5072982;28;20553;-70
2022/11/30 04:40:42;;;;;;;48.67;28.80;;;7.40;99.90;;;;;;5073141;28;20123;-70
2022/11/30 04:43:09;;;;;;;44.88;28.83;;;7.40;99.90;;;;;;5072781;28;20145;-70
2022/11/30 04:45:35;;;;;;;44.45;27.77;;;7.40;99.90;;;;;;5072923;28;20127;-70
2022/11/30 04:48:01;;;;;;;42.67;27.63;;;7.50;99.90;;;;;;5072766;28;20469;-70
2022/11/30 04:50:27;;;;;;;44.67;28.05;;;7.40;99.90;;;;;;5072938;28;20564;-70
2022/11/30 04:52:52;;;;;;;46.25;29.60;;;7.40;99.90;;;;;;5072562;28;20092;-70
2022/11/30 04:55:18;;;;;;;45.20;28.30;;;7.40;99.90;;;;;;5073719;28;20377;-70
2022/11/30 04:57:47;;;;;;;47.40;28.15;;;7.50;99.90;;;;;;5072571;28;20059;-70
2022/11/30 05:00:14;;;;;;;42.30;25.92;;;7.50;99.90;;;;;;5073785;28;20040;-70
2022/11/30 05:02:40;;;;;;;41.58;26.67;;;7.40;99.90;;;;;;5072557;28;20209;-70
2022/11/30 05:05:06;;;;;;;38.03;24.85;;;7.40;99.90;;;;;;5072455;28;20541;-70
2022/11/30 05:07:31;;;;;;;44.80;28.55;;;7.40;99.90;;;;;;5072658;28;20052;-70
2022/11/30 05:09:57;;;;;;;42.25;27.38;;;7.40;99.90;;;;;;5072357;28;20405;-70
2022/11/30 05:12:23;;;;;;;45.83;28.85;;;7.50;99.90;;;;;;5072253;28;20043;-70
2022/11/30 05:14:48;;;;;;;46.28;28.73;;;7.40;99.90;;;;;;5072185;28;20047;-70
2022/11/30 05:17:14;;;;;;;43.08;27.55;;;7.50;99.90;;;;;;5072230;28;20072;-70
2022/11/30 05:19:39;;;;;;;48.67;28.27;;;7.40;99.90;;;;;;5072210;28;20044;-70
2022/11/30 05:22:05;;;;;;;49.95;28.58;;;7.40;99.90;;;;;;5072214;28;20044;-70
2022/11/30 05:24:30;;;;;;;38.80;25.20;;;7.40;99.90;;;;;;5071537;28;20040;-70
2022/11/30 05:26:56;;;;;;;46.30;27.52;;;7.40;99.90;;;;;;5072162;28;20040;-70
2022/11/30 05:29:21;;;;;;;50.88;27.27;;;7.40;99.90;;;;;;5072091;28;20044;-70
2022/11/30 05:31:47;;;;;;;43.85;26.75;;;7.40;99.90;;;;;;5071996;28;20080;-70
2022/11/30 05:34:13;;;;;;;46.85;26.73;;;7.40;99.90;;;;;;5071980;28;20041;-70
2022/11/30 05:36:38;;;;;;;42.95;26.45;;;7.40;99.90;;;;;;5072011;28;20040;-70
2022/11/30 05:39:04;;;;;;;42.90;25.67;;;7.40;99.90;;;;;;5071966;28;20059;-70
2022/11/30 05:41:30;;;;;;;40.15;23.55;;;7.40;99.90;;;;;;5071936;28;20086;-70
2022/11/30 05:43:56;;;;;;;44.75;26.45;;;7.40;99.90;;;;;;5071838;28;20120;-69
2022/11/30 05:46:22;;;;;;;44.25;25.60;;;7.40;99.90;;;;;;5071802;28;20097;-69
2022/11/30 05:48:47;;;;;;;46.60;25.88;;;7.40;99.90;;;;;;5071883;28;20131;-69
2022/11/30 05:51:15;;;;;;;44.42;26.45;;;7.40;99.90;;;;;;5072029;28;20047;-69
2022/11/30 05:53:42;;;;;;;47.28;26.77;;;7.30;99.90;;;;;;5071961;28;20052;-70
2022/11/30 05:56:11;;;;;;;42.42;25.95;;;7.40;99.90;;;;;;5072045;28;20048;-70
2022/11/30 05:58:37;;;;;;;40.55;23.70;;;7.40;99.90;;;;;;5073018;28;20551;-70
2022/11/30 06:01:03;;;;;;;47.35;26.30;;;7.40;99.90;;;;;;5071735;28;20036;-70
2022/11/30 06:03:31;;;;;;;41.45;25.13;;;7.40;99.90;;;;;;5071614;28;20033;-70
2022/11/30 06:05:56;;;;;;;43.50;26.05;;;7.40;99.90;;;;;;5071976;28;20545;-70
2022/11/30 06:08:22;;;;;;;46.63;26.60;;;7.30;99.90;;;;;;5071692;28;20128;-70
2022/11/30 06:10:48;;;;;;;45.55;25.67;;;7.40;99.90;;;;;;5071578;28;20040;-70
2022/11/30 06:13:14;;;;;;;44.15;24.75;;;7.30;99.90;;;;;;5071523;28;20040;-70
2022/11/30 06:15:40;;;;;;;40.72;23.90;;;7.30;99.90;;;;;;5071550;28;20120;-70
2022/11/30 06:18:07;;;;;;;39.95;24.50;;;7.30;99.90;;;;;;5071568;28;20474;-70
2022/11/30 06:20:33;;;;;;;45.33;26.80;;;7.30;99.90;;;;;;5071538;28;20119;-70
2022/11/30 06:22:59;;;;;;;44.10;24.38;;;7.30;99.90;;;;;;5071481;28;20120;-70
2022/11/30 06:25:25;;;;;;;40.38;23.58;;;7.30;99.90;;;;;;5071459;28;20040;-70
2022/11/30 06:27:51;;;;;;;41.90;24.33;;;7.30;99.90;;;;;;5071477;28;20084;-70
2022/11/30 06:30:17;;;;;;;43.00;23.42;;;7.30;99.90;;;;;;5071429;28;20040;-70
2022/11/30 06:32:46;;;;;;;43.28;23.58;;;7.30;99.90;;;;;;5071315;28;20093;-70
2022/11/30 06:35:13;;;;;;;41.33;24.48;;;7.30;99.90;;;;;;5071405;28;20041;-70
2022/11/30 06:37:38;;;;;;;42.25;24.42;;;7.30;99.90;;;;;;5075130;28;20043;-70
2022/11/30 06:40:05;;;;;;;44.10;24.30;;;7.30;99.90;;;;;;5075506;28;20041;-70
2022/11/30 06:42:32;;;;;;;42.17;23.48;;;7.30;99.90;;;;;;5075033;28;20036;-69
2022/11/30 06:44:57;;;;;;;42.20;23.90;;;7.30;99.90;;;;;;5076210;28;20080;-70
2022/11/30 06:47:23;;;;;;;42.30;23.38;;;7.30;99.90;;;;;;5075580;28;20094;-70
2022/11/30 06:49:49;;;;;;;44.05;25.40;;;7.30;99.90;;;;;;5074927;28;20498;-70
2022/11/30 06:52:14;;;;;;;49.58;25.80;;;7.30;99.90;;;;;;5074821;28;20090;-70
2022/11/30 06:54:40;;;;;;;49.55;26.27;;;7.30;99.90;;;;;;5076033;28;20067;-70
2022/11/30 06:57:05;;;;;;;46.92;25.35;;;7.20;99.90;;;;;;5075101;28;20047;-70
2022/11/30 06:59:31;;;;;;;47.80;25.55;;;7.30;99.90;;;;;;5075325;28;20450;-70
2022/11/30 07:01:57;;;;;;;44.40;25.30;;;7.20;99.90;;;;;;5076014;28;20561;-69
2022/11/30 07:04:22;;;;;;;51.88;25.90;;;7.20;99.90;;;;;;5074666;28;20048;-70
2022/11/30 07:06:48;;;;;;;48.17;26.38;;;7.30;99.90;;;;;;5074920;28;20052;-70
2022/11/30 07:09:13;;;;;;;58.90;28.67;;;7.30;99.90;;;;;;5074631;28;20045;-69
2022/11/30 07:11:39;;;;;;;54.00;27.15;;;7.20;99.90;;;;;;5074528;28;20405;-70
2022/11/30 07:14:05;;;;;;;51.58;25.92;;;7.20;99.90;;;;;;5058115;28;20060;-69
2022/11/30 07:16:31;;;;;;;48.95;25.40;;;7.20;99.90;;;;;;5074530;28;20492;-69
2022/11/30 07:18:56;;;;;;;41.97;22.92;;;7.20;99.90;;;;;;5074486;28;20568;-69
2022/11/30 07:21:22;;;;;;;46.35;25.15;;;7.20;99.90;;;;;;5074436;28;20124;-69
2022/11/30 07:26:32;;;;;;;42.33;22.52;;;7.20;99.90;;;;;;5074574;28;20398;-70
2022/11/30 07:28:57;;;;;;;37.15;22.05;;;7.20;99.90;;;;;;5074535;28;20497;-70
2022/11/30 07:31:28;;;;;;;32.25;19.70;;;7.20;99.90;;;;;;5075673;28;20477;-70
2022/11/30 07:33:55;;;;;;;30.35;18.15;;;7.20;99.90;;;;;;5074387;28;20076;-70
2022/11/30 07:36:22;;;;;;;35.78;19.42;;;7.20;99.90;;;;;;5075952;28;20040;-70
2022/11/30 07:38:48;;;;;;;32.53;18.60;;;7.20;99.90;;;;;;5074097;28;20049;-70
2022/11/30 07:41:15;;;;;;;35.08;20.45;;;7.20;99.90;;;;;;5074305;28;20139;-69
2022/11/30 07:43:40;;;;;;;35.67;19.13;;;7.20;99.90;;;;;;5073941;28;20485;-69
2022/11/30 07:46:07;;;;;;;35.00;18.42;;;7.20;99.90;;;;;;5073819;28;20044;-69
2022/11/30 07:48:33;;;;;;;29.50;17.27;;;7.20;99.90;;;;;;5073687;28;20536;-69
2022/11/30 07:51:07;;;;;;;29.20;17.33;;;7.20;99.90;;;;;;5073790;28;20036;-69
2022/11/30 07:53:33;;;;;;;26.10;16.33;;;7.20;99.90;;;;;;5073759;28;20120;-69
2022/11/30 07:56:08;;;;;;;27.40;16.75;;;7.20;99.90;;;;;;5074048;28;20132;-69
2022/11/30 07:58:34;;;;;;;27.73;16.80;;;7.20;99.90;;;;;;5073754;28;20044;-69
2022/11/30 08:01:05;;;;;;;24.48;16.27;;;7.10;99.90;;;;;;5073682;28;20036;-69
2022/11/30 08:03:31;;;;;;;26.10;16.15;;;7.10;99.90;;;;;;5073757;28;20386;-69
2022/11/30 08:06:08;;;;;;;26.30;15.93;;;7.20;99.90;;;;;;5073658;28;20089;-69
2022/11/30 08:08:36;;;;;;;25.80;16.13;;;7.20;99.90;;;;;;5073641;28;20043;-69
2022/11/30 08:11:03;;;;;;;28.83;16.23;;;7.10;99.90;;;;;;5073439;28;20052;-69
2022/11/30 08:13:29;;;;;;;24.60;15.55;;;7.10;99.90;;;;;;5073652;28;20050;-69
2022/11/30 08:15:59;;;;;;;27.23;16.17;;;7.20;99.90;;;;;;5073647;28;20037;-69
2022/11/30 08:18:24;;;;;;;24.17;15.25;;;7.10;99.90;;;;;;5073426;28;20493;-69
2022/11/30 08:20:56;;;;;;;25.55;16.17;;;7.20;99.90;;;;;;5073479;28;20040;-69
2022/11/30 08:23:22;;;;;;;26.63;17.00;;;7.20;99.90;;;;;;5056809;28;20036;-69
2022/11/30 08:25:47;;;;;;;26.67;16.08;;;7.20;99.90;;;;;;5073231;28;20559;-69
2022/11/30 08:28:13;;;;;;;25.10;16.67;;;7.20;99.90;;;;;;5073479;28;20076;-69
2022/11/30 08:30:38;;;;;;;24.05;15.98;;;7.20;99.90;;;;;;5073108;28;20490;-69
2022/11/30 08:33:04;;;;;;;23.02;15.93;;;7.20;99.90;;;;;;5072875;28;20040;-69
2022/11/30 08:35:29;;;;;;;25.23;16.30;;;7.20;99.90;;;;;;5073158;28;20041;-69
2022/11/30 08:37:55;;;;;;;24.17;15.55;;;7.20;99.90;;;;;;5073252;28;20153;-69
2022/11/30 08:40:21;;;;;;;24.80;16.08;;;7.20;99.90;;;;;;5072918;28;20512;-69
2022/11/30 08:42:46;;;;;;;24.48;16.83;;;7.20;99.90;;;;;;5074308;28;20123;-69
2022/11/30 08:45:12;;;;;;;24.13;15.15;;;7.20;99.90;;;;;;5072728;28;20048;-69
2022/11/30 08:47:37;;;;;;;24.05;15.45;;;7.20;99.90;;;;;;5072845;28;20060;-69
2022/11/30 08:50:03;;;;;;;24.63;16.27;;;7.20;99.90;;;;;;5072816;28;20051;-69
2022/11/30 08:52:29;;;;;;;25.85;16.42;;;7.20;99.90;;;;;;5072794;28;20028;-69
2022/11/30 08:54:55;;;;;;;22.02;14.50;;;7.20;99.90;;;;;;5072671;28;20497;-69
2022/11/30 08:57:21;;;;;;;22.25;15.55;;;7.10;99.90;;;;;;5072615;28;20124;-70
2022/11/30 08:59:47;;;;;;;23.20;15.07;;;7.20;99.90;;;;;;5071743;28;20123;-69
2022/11/30 09:02:17;;;;;;;23.67;15.93;;;7.20;99.90;;;;;;5072503;28;20489;-69
2022/11/30 09:04:44;;;;;;;22.80;15.13;;;7.20;99.90;;;;;;5072348;28;20036;-69
2022/11/30 09:07:10;;;;;;;21.08;15.10;;;7.20;99.90;;;;;;5072694;28;20074;-69
2022/11/30 09:09:36;;;;;;;21.58;14.52;;;7.20;99.90;;;;;;5072472;28;20040;-69
2022/11/30 09:12:01;;;;;;;21.63;14.52;;;7.20;99.90;;;;;;5072276;28;20554;-70
2022/11/30 09:14:27;;;;;;;20.15;14.77;;;7.20;99.90;;;;;;5072260;28;20045;-69
2022/11/30 09:16:54;;;;;;;21.85;15.27;;;7.20;99.90;;;;;;5072264;28;20043;-69
2022/11/30 09:19:20;;;;;;;20.85;14.82;;;7.20;99.90;;;;;;5072248;28;20040;-69
2022/11/30 09:21:46;;;;;;;17.35;13.10;;;7.20;99.90;;;;;;5072609;28;20040;-69
2022/11/30 09:24:11;;;;;;;18.23;12.32;;;7.20;99.90;;;;;;5072116;28;20455;-69
2022/11/30 09:26:37;;;;;;;18.33;12.93;;;7.20;99.90;;;;;;5072133;28;20059;-69
2022/11/30 09:29:03;;;;;;;18.70;12.90;;;7.20;99.90;;;;;;5072350;28;20041;-69
2022/11/30 09:31:28;;;;;;;16.50;11.90;;;7.20;99.90;;;;;;5072214;28;20056;-69
2022/11/30 09:33:56;;;;;;;16.40;11.73;;;7.20;99.90;;;;;;5072483;28;20044;-70
2022/11/30 09:36:22;;;;;;;17.67;12.88;;;7.20;99.90;;;;;;5072381;28;20138;-69
2022/11/30 09:38:48;;;;;;;15.93;12.15;;;7.20;99.90;;;;;;5072066;28;20120;-69
2022/11/30 09:41:40;;;;;;;16.50;12.10;;;7.30;99.90;;;;;;5071933;28;20116;-69
2022/11/30 09:44:32;;;;;;;16.15;11.82;;;7.30;99.90;;;;;;5044080;28;20056;-69
2022/11/30 09:47:06;;;;;;;16.33;12.52;;;7.30;99.90;;;;;;5072059;28;20051;-69
2022/11/30 09:49:50;;;;;;;15.10;11.75;;;7.40;99.90;;;;;;5071861;28;20040;-69
2022/11/30 09:52:36;;;;;;;15.45;11.98;;;7.40;99.90;;;;;;5071818;28;20052;-69
2022/11/30 09:55:08;;;;;;;16.42;12.07;;;7.40;99.90;;;;;;5071831;28;20434;-69
2022/11/30 09:57:47;;;;;;;15.90;11.88;;;7.40;99.90;;;;;;5071848;28;20143;-69
2022/11/30 10:00:20;;;;;;;13.95;11.40;;;7.40;99.90;;;;;;5072018;28;20485;-69
2022/11/30 10:02:48;;;;;;;15.38;11.85;;;7.40;99.90;;;;;;5072007;28;20050;-69
2022/11/30 10:05:18;;;;;;;16.73;12.70;;;7.40;99.90;;;;;;5071678;28;20446;-71
2022/11/30 10:08:01;;;;;;;15.02;11.88;;;7.40;99.90;;;;;;5073124;28;20042;-69
2022/11/30 10:10:38;;;;;;;16.80;12.80;;;7.50;99.90;;;;;;5073999;28;20087;-69
2022/11/30 10:13:04;;;;;;;18.25;13.93;;;7.40;99.90;;;;;;5075705;28;20041;-69
2022/11/30 10:15:52;;;;;;;19.52;14.63;;;7.50;99.90;;;;;;5075753;28;20047;-69
2022/11/30 10:18:48;;;;;;;18.70;14.45;;;7.50;99.90;;;;;;5075739;28;20052;-69
2022/11/30 10:21:39;;;;;;;21.02;15.32;;;7.50;99.90;;;;;;5075916;28;20045;-69
2022/11/30 10:24:13;;;;;;;21.15;16.45;;;7.40;99.90;;;;;;5075527;28;20051;-69
2022/11/30 10:26:44;;;;;;;23.48;17.48;;;7.40;99.90;;;;;;5075537;28;20619;-69
2022/11/30 10:29:29;;;;;;;26.92;18.67;;;7.50;99.90;;;;;;5075466;28;20403;-69
2022/11/30 10:31:58;;;;;;;21.58;16.80;;;7.40;99.90;;;;;;5075378;28;20047;-69
2022/11/30 10:34:31;;;;;;;22.92;17.48;;;7.40;99.90;;;;;;5075572;28;20097;-69
2022/11/30 10:37:09;;;;;;;26.25;18.20;;;7.40;99.90;;;;;;5075632;28;20040;-69
2022/11/30 10:39:54;;;;;;;26.85;18.60;;;7.40;99.90;;;;;;5075590;28;20044;-69
2022/11/30 10:42:29;;;;;;;26.40;18.23;;;7.50;99.90;;;;;;5075135;28;20158;-69
2022/11/30 10:45:11;;;;;;;23.73;18.58;;;7.40;99.90;;;;;;5075260;28;20048;-69
2022/11/30 10:47:42;;;;;;;24.30;18.45;;;7.50;99.90;;;;;;5075406;28;20440;-69
2022/11/30 10:50:13;;;;;;;25.08;19.02;;;7.50;99.90;;;;;;5075327;28;20056;-69
2022/11/30 10:52:46;;;;;;;24.17;17.77;;;7.50;99.90;;;;;;5074998;28;20062;-69
2022/11/30 10:55:22;;;;;;;24.67;17.85;;;7.60;99.90;;;;;;5074902;28;20047;-69
2022/11/30 10:57:51;;;;;;;23.60;17.35;;;7.60;99.90;;;;;;5058173;28;20051;-69
2022/11/30 11:00:17;;;;;;;24.27;18.58;;;7.60;99.90;;;;;;5074867;28;20147;-69
2022/11/30 11:02:48;;;;;;;26.30;17.58;;;7.60;99.90;;;;;;5074707;28;20115;-69
2022/11/30 11:05:18;;;;;;;23.48;16.65;;;7.60;99.90;;;;;;5074756;28;20504;-69
2022/11/30 11:07:53;;;;;;;24.25;16.92;;;7.60;99.90;;;;;;5075036;28;20591;-69
2022/11/30 11:10:41;;;;;;;23.30;16.80;;;7.60;99.90;;;;;;5074755;28;20424;-69
2022/11/30 11:13:15;;;;;;;22.25;16.38;;;7.60;99.90;;;;;;5073888;28;20048;-69
2022/11/30 11:15:56;;;;;;;22.02;16.08;;;7.60;99.90;;;;;;5074870;28;20416;-69
2022/11/30 11:18:32;;;;;;;20.40;15.68;;;7.60;99.90;;;;;;5075424;28;20047;-69
2022/11/30 11:21:18;;;;;;;21.60;15.85;;;7.60;99.90;;;;;;5074084;28;20036;-69
2022/11/30 11:23:46;;;;;;;21.02;16.20;;;7.60;99.90;;;;;;5074666;28;20490;-69
2022/11/30 11:26:27;;;;;;;22.30;16.17;;;7.60;99.90;;;;;;5074362;28;20041;-69
2022/11/30 11:28:55;;;;;;;20.90;15.88;;;7.60;99.90;;;;;;5057693;28;20547;-69
2022/11/30 11:32:08;;;;;;;19.77;15.30;;;7.50;99.90;;;;;;5074511;28;20190;-69
2022/11/30 11:34:35;;;;;;;22.92;17.33;;;7.60;99.90;;;;;;5016884;28;20514;-69
2022/11/30 11:37:19;;;;;;;24.58;17.52;;;7.50;99.90;;;;;;5067197;28;20052;-69
2022/11/30 11:40:03;;;;;;;23.38;16.80;;;7.60;99.90;;;;;;5074395;28;20123;-69
2022/11/30 11:42:33;;;;;;;24.83;17.95;;;7.60;99.90;;;;;;5074258;28;20052;-69
2022/11/30 11:45:01;;;;;;;24.27;17.23;;;7.60;99.90;;;;;;5074090;28;20481;-69
2022/11/30 11:47:27;;;;;;;27.13;18.42;;;7.60;99.90;;;;;;5074114;28;20072;-69
2022/11/30 11:50:19;;;;;;;25.95;18.45;;;7.60;99.90;;;;;;5074013;28;20071;-69
2022/11/30 11:52:45;;;;;;;27.30;18.45;;;7.70;99.90;;;;;;5073888;28;20493;-69
2022/11/30 11:55:17;;;;;;;22.92;17.48;;;7.60;99.90;;;;;;5073895;28;20127;-69
2022/11/30 11:57:54;;;;;;;27.75;19.77;;;7.60;99.90;;;;;;5075121;28;20128;-69
2022/11/30 12:00:24;;;;;;;27.77;18.80;;;7.60;99.90;;;;;;5074060;28;20550;-70
2022/11/30 12:03:09;;;;;;;29.98;20.90;;;7.60;99.90;;;;;;5073893;28;20059;-69
2022/11/30 12:05:43;;;;;;;29.55;21.65;;;7.60;99.90;;;;;;5073745;28;20094;-69
2022/11/30 12:08:16;;;;;;;29.35;21.05;;;7.60;99.90;;;;;;5073671;28;20052;-69
2022/11/30 12:11:06;;;;;;;28.77;20.92;;;7.60;99.90;;;;;;5073641;28;20118;-69
2022/11/30 12:13:37;;;;;;;32.13;22.55;;;7.60;99.90;;;;;;5072962;28;20143;-69
2022/11/30 12:16:14;;;;;;;34.28;22.60;;;7.60;99.90;;;;;;5073483;28;20094;-69
2022/11/30 12:19:01;;;;;;;31.00;21.38;;;7.50;99.90;;;;;;5073665;28;20040;-69
2022/11/30 12:22:00;;;;;;;30.85;22.63;;;7.60;99.90;;;;;;5073367;28;20119;-69
2022/11/30 12:24:58;;;;;;;35.22;24.85;;;7.60;99.90;;;;;;5073236;28;20086;-69
2022/11/30 12:27:34;;;;;;;36.38;24.67;;;7.50;99.90;;;;;;5073306;28;20036;-69
2022/11/30 12:30:10;;;;;;;32.83;23.60;;;7.50;99.90;;;;;;5073211;28;20569;-69
2022/11/30 12:33:20;;;;;;;35.80;24.83;;;7.50;99.90;;;;;;5072902;28;20040;-69
2022/11/30 12:35:53;;;;;;;33.95;22.38;;;7.50;99.90;;;;;;5073119;28;20040;-69
2022/11/30 12:38:24;;;;;;;32.45;23.10;;;7.50;99.90;;;;;;5073023;28;20036;-69
2022/11/30 12:41:20;;;;;;;32.15;22.90;;;7.50;99.90;;;;;;5072990;28;20037;-69
2022/11/30 12:44:19;;;;;;;32.90;22.80;;;7.60;99.90;;;;;;5073169;28;20045;-69
2022/11/30 12:47:06;;;;;;;28.90;20.77;;;7.50;99.90;;;;;;5015437;28;20549;-69
2022/11/30 12:49:44;;;;;;;29.65;21.67;;;7.60;99.90;;;;;;5016605;28;20107;-70
2022/11/30 12:52:26;;;;;;;28.17;20.50;;;7.60;99.90;;;;;;5015732;28;20141;-69